Airfield :
LOGIN :

Register | Disclaimer

   EN    FR    IT 

 










Legend :    VFR   Marginal VFR   IFR   Intensive IFR   Very Intensive IFR
Visi :
Ceiling :
>= 8 km
>= 3000ft
5 to 8 km
1000 to 3000 ft
1500m to 5 km
500 to 1000 ft
800 to 1500m
200 to 500 ft
< 800m
< 200 ft
Symbols :   Thunderstorms  Fog  Heavy snow  Heavy precipitations  Wind > 20 kt
SIGMETs :     Misc.  Thunderstorms  Icing  Turbulence  Mountain Waves  Volcanic Ashes






- Airport Elevation : 18 ft
- IATA code : AJA


LFKJ - Ajaccio

CURRENT METAR :
  • 211800Z AUTO VRB02KT 9999 BKN019 BKN024 BKN029 13/11 Q1014 TEMPO 4000 -RA BKN013 BKN030 FEW033CB BECMG 21012KT

EXPIRED METARs :
  • 211730Z AUTO VRB03KT 9999 BKN022 OVC046 13/12 Q1013 TEMPO 4000 -RA BKN013 BKN030 FEW033CB
  • 211700Z AUTO 08003KT 9999 BKN022 BKN028 OVC043 13/12 Q1013 TEMPO 4000 -RA BKN013 BKN030 FEW033CB
  • 211630Z AUTO 11003KT 9999 BKN021 BKN026 OVC035 14/12 Q1014 TEMPO 4000 -RA BKN013 BKN030 FEW033CB
  • 211600Z AUTO 15003KT 9999 FEW027 BKN040 OVC046 14/12 Q1014 TEMPO 4000 -RA BKN013 BKN030 FEW033CB

TAF TAF LFKJ
Valid from the 21 at 15:00 until the 22 at 15:00 UTC


211400Z 2115/2215 VRB03KT 9999 SCT015 BKN020
TEMPO 2115/2211 4000 -RA BKN013 BKN030 FEW033CB
BECMG 2119/2121 21012KT
BECMG 2211/2213 19020G30KT SHRA BKN010 BKN020 FEW033CB
PROB40
TEMPO 2211/2215 20025G35KT 3000 TSRA
ATIS : +33 4 95 23 59 85



MET'MAP, your aeronautical weather chart ! - Copyright ORBIFLY December 2007 - Disclaimer

ORBIFLY MET'MAP TEAM :

Programming & Development : Alexandra Zaïnal
Concept & original design : Baudouin d'Aumeries
Assistance for programming : Marc-Olivier Méhu
Technical & hardware support : Manuel Goepfert

Contact : metmap@orbifly.com




SOURCES & CREDITS :

   NOAA